^^
Saratoga-Weather Station Historical Data
Daily Summary for August 5, 2020 Units:  Metric    English   Both
Daily Weekly Monthly Yearly Custom
  High: Low: Average:
Temperature: 9.9 °C 2.7 °C 5.1 °C
Dew Point: 5.8 °C 1.8 °C 3.3 °C
Humidity: 95% 72% 89%
Wind Speed: 7.9km/h 0km/h 1.1km/h
Wind Gust: 14.5km/h - -
Wind- - SSW
Pressure: 1038.3 hPa 1034.5 hPa -
Precipitation: 0.2 mm    
Historical Graphs
 
 
Tabular Data for August 5, 2020
Time Temperature Dew Point Pressure Wind Wind Speed Wind Gust Humidity Rainfall Rate (Hourly) solar
00:02 4.1 °C 3.1 °C 1036.2 hPa Calm   3.2 km/h 93% 0.0 mm 0 W/m2
00:07 4.1 °C 3.1 °C 1036.2 hPa WNW 1.4 km/h 1.6 km/h 93% 0.0 mm 0 W/m2
00:12 4 °C 3 °C 1036.2 hPa Calm   4.8 km/h 93% 0.0 mm 0 W/m2
00:17 4.1 °C 3.1 °C 1036.2 hPa SW 1.4 km/h 3.2 km/h 93% 0.0 mm 0 W/m2
00:22 4.1 °C 3.1 °C 1036.2 hPa SW 1.4 km/h 1.6 km/h 93% 0.0 mm 0 W/m2
00:27 4.1 °C 3.1 °C 1036.2 hPa Calm     93% 0.0 mm 0 W/m2
00:32 4 °C 3 °C 1036.2 hPa SW 3.2 km/h 3.2 km/h 93% 0.0 mm 0 W/m2
00:37 3.9 °C 2.9 °C 1036.2 hPa Calm   1.6 km/h 93% 0.0 mm 0 W/m2
00:42 3.9 °C 2.9 °C 1036.2 hPa Calm     93% 0.0 mm 0 W/m2
00:47 3.9 °C 2.9 °C 1036.2 hPa Calm     93% 0.0 mm 0 W/m2
00:52 3.8 °C 2.8 °C 1036.2 hPa Calm   1.6 km/h 93% 0.0 mm 0 W/m2
00:57 3.8 °C 2.8 °C 1036.2 hPa Calm   1.6 km/h 93% 0.0 mm 0 W/m2
01:02 3.8 °C 2.8 °C 1036.2 hPa Calm     93% 0.0 mm 0 W/m2
01:07 3.8 °C 2.8 °C 1036.6 hPa Calm     93% 0.0 mm 0 W/m2
01:12 3.8 °C 2.8 °C 1036.6 hPa SW 1.4 km/h 3.2 km/h 93% 0.0 mm 0 W/m2
01:17 3.8 °C 2.8 °C 1036.6 hPa SW 3.2 km/h 4.8 km/h 93% 0.0 mm 0 W/m2
01:22 3.8 °C 2.8 °C 1036.6 hPa Calm   3.2 km/h 93% 0.0 mm 0 W/m2
01:27 3.8 °C 2.8 °C 1036.6 hPa SW 1.4 km/h 4.8 km/h 93% 0.0 mm 0 W/m2
01:32 3.7 °C 2.7 °C 1036.6 hPa Calm   4.8 km/h 93% 0.0 mm 0 W/m2
01:37 3.7 °C 2.7 °C 1036.6 hPa Calm   1.6 km/h 93% 0.0 mm 0 W/m2
01:42 3.7 °C 2.7 °C 1036.6 hPa WSW 1.4 km/h 3.2 km/h 93% 0.0 mm 0 W/m2
01:47 3.7 °C 2.8 °C 1036.6 hPa Calm   3.2 km/h 94% 0.0 mm 0 W/m2
01:52 3.6 °C 2.7 °C 1036.6 hPa Calm     94% 0.0 mm 0 W/m2
01:57 3.5 °C 2.5 °C 1036.6 hPa WSW 1.4 km/h 3.2 km/h 93% 0.0 mm 0 W/m2
02:02 3.4 °C 2.4 °C 1036.6 hPa WSW 1.4 km/h 3.2 km/h 93% 0.0 mm 0 W/m2
02:07 3.3 °C 2.3 °C 1036.6 hPa Calm   1.6 km/h 93% 0.0 mm 0 W/m2
02:12 3.2 °C 2.3 °C 1036.6 hPa WSW 1.4 km/h 1.6 km/h 94% 0.0 mm 0 W/m2
02:17 3.2 °C 2.2 °C 1036.6 hPa WSW 3.2 km/h 3.2 km/h 93% 0.0 mm 0 W/m2
02:22 3.1 °C 2.1 °C 1036.6 hPa SW 1.4 km/h 3.2 km/h 93% 0.0 mm 0 W/m2
02:27 3 °C 2.1 °C 1036.2 hPa Calm   1.6 km/h 94% 0.0 mm 0 W/m2
02:32 3 °C 2.1 °C 1036.6 hPa Calm   3.2 km/h 94% 0.0 mm 0 W/m2
02:37 2.9 °C 2 °C 1036.6 hPa Calm     94% 0.0 mm 0 W/m2
02:42 2.9 °C 2 °C 1036.6 hPa Calm   3.2 km/h 94% 0.0 mm 0 W/m2
02:47 2.9 °C 2 °C 1036.6 hPa Calm     94% 0.0 mm 0 W/m2
02:52 3 °C 2.1 °C 1036.6 hPa Calm   3.2 km/h 94% 0.0 mm 0 W/m2
02:57 3.1 °C 2.2 °C 1036.6 hPa Calm   1.6 km/h 94% 0.0 mm 0 W/m2
03:03 3 °C 2.1 °C 1036.6 hPa WSW 1.4 km/h 4.8 km/h 94% 0.0 mm 0 W/m2
03:08 3 °C 2.1 °C 1036.6 hPa Calm   1.6 km/h 94% 0.0 mm 0 W/m2
03:13 2.9 °C 2 °C 1036.6 hPa Calm     94% 0.0 mm 0 W/m2
03:18 3 °C 2.3 °C 1036.6 hPa Calm     95% 0.0 mm 0 W/m2
03:23 3.1 °C 2.4 °C 1036.9 hPa Calm   1.6 km/h 95% 0.0 mm 0 W/m2
03:28 3 °C 2.1 °C 1036.9 hPa Calm   3.2 km/h 94% 0.0 mm 0 W/m2
03:33 2.9 °C 2.2 °C 1036.9 hPa WSW 1.4 km/h 1.6 km/h 95% 0.0 mm 0 W/m2
03:38 2.9 °C 2.2 °C 1036.9 hPa Calm   4.8 km/h 95% 0.0 mm 0 W/m2
03:43 3 °C 2.3 °C 1036.9 hPa Calm   3.2 km/h 95% 0.0 mm 0 W/m2
03:48 3.1 °C 2.4 °C 1036.6 hPa South 1.4 km/h 4.8 km/h 95% 0.0 mm 0 W/m2
03:53 3.1 °C 2.4 °C 1036.6 hPa South 1.4 km/h 3.2 km/h 95% 0.0 mm 0 W/m2
03:58 3.1 °C 2.4 °C 1036.6 hPa Calm   1.6 km/h 95% 0.0 mm 0 W/m2
04:03 3 °C 2.3 °C 1036.6 hPa South 1.4 km/h 1.6 km/h 95% 0.0 mm 0 W/m2
04:08 2.9 °C 2.2 °C 1036.6 hPa Calm   3.2 km/h 95% 0.0 mm 0 W/m2
04:13 2.8 °C 1.9 °C 1036.6 hPa Calm     94% 0.0 mm 0 W/m2
04:18 2.7 °C 1.8 °C 1036.6 hPa Calm   3.2 km/h 94% 0.0 mm 0 W/m2
04:23 2.7 °C 2 °C 1036.6 hPa Calm     95% 0.0 mm 0 W/m2
04:28 2.7 °C 2 °C 1036.6 hPa South 1.4 km/h 1.6 km/h 95% 0.0 mm 0 W/m2
04:33 2.7 °C 2 °C 1036.6 hPa Calm   3.2 km/h 95% 0.0 mm 0 W/m2
04:38 2.7 °C 2 °C 1036.6 hPa Calm     95% 0.0 mm 0 W/m2
04:43 2.8 °C 2.1 °C 1036.6 hPa SSW 4.7 km/h 4.8 km/h 95% 0.0 mm 0 W/m2
04:48 2.9 °C 2.2 °C 1036.9 hPa SSW 1.4 km/h 3.2 km/h 95% 0.0 mm 0 W/m2
04:53 2.9 °C 2.2 °C 1036.9 hPa Calm   4.8 km/h 95% 0.0 mm 0 W/m2
04:58 2.8 °C 2.1 °C 1036.9 hPa SSW 1.4 km/h 3.2 km/h 95% 0.0 mm 0 W/m2
05:03 2.8 °C 2.1 °C 1037.2 hPa Calm   3.2 km/h 95% 0.0 mm 0 W/m2
05:09 2.9 °C 2.2 °C 1037.2 hPa Calm   4.8 km/h 95% 0.0 mm 0 W/m2
05:14 2.9 °C 2.2 °C 1037.2 hPa SW 3.2 km/h 3.2 km/h 95% 0.0 mm 0 W/m2
05:19 2.9 °C 2.2 °C 1037.2 hPa WSW 1.4 km/h 3.2 km/h 95% 0.0 mm 0 W/m2
05:24 2.9 °C 2.2 °C 1037.2 hPa Calm   3.2 km/h 95% 0.0 mm 0 W/m2
05:29 3 °C 2.3 °C 1037.2 hPa Calm   3.2 km/h 95% 0.0 mm 0 W/m2
05:34 3.1 °C 2.4 °C 1037.2 hPa West 1.4 km/h 3.2 km/h 95% 0.0 mm 0 W/m2
05:39 3.1 °C 2.4 °C 1037.2 hPa West 3.2 km/h 3.2 km/h 95% 0.0 mm 0 W/m2
05:44 3 °C 2.3 °C 1037.2 hPa Calm   1.6 km/h 95% 0.0 mm 0 W/m2
05:49 2.9 °C 2.2 °C 1037.2 hPa WSW 1.4 km/h 3.2 km/h 95% 0.0 mm 0 W/m2
05:54 3 °C 2.3 °C 1037.2 hPa NW 1.4 km/h 1.6 km/h 95% 0.0 mm 0 W/m2
05:59 3 °C 2.3 °C 1037.2 hPa North 3.2 km/h 6.4 km/h 95% 0.0 mm 0 W/m2
06:04 3.1 °C 2.4 °C 1037.2 hPa Calm     95% 0.0 mm 0 W/m2
06:09 3 °C 2.3 °C 1037.2 hPa West 1.4 km/h 3.2 km/h 95% 0.2 mm 0 W/m2
06:14 2.9 °C 2.2 °C 1037.2 hPa Calm     95% 0.2 mm 0 W/m2
06:19 2.9 °C 2.2 °C 1037.2 hPa West 1.4 km/h 3.2 km/h 95% 0.2 mm 0 W/m2
06:24 2.9 °C 2.2 °C 1037.2 hPa Calm   3.2 km/h 95% 0.2 mm 0 W/m2
06:29 3 °C 2.3 °C 1037.2 hPa Calm   1.6 km/h 95% 0.2 mm 0 W/m2
06:34 3.1 °C 2.4 °C 1037.2 hPa NE 1.4 km/h 3.2 km/h 95% 0.2 mm 0 W/m2
06:39 3.1 °C 2.4 °C 1037.2 hPa Calm   3.2 km/h 95% 0.2 mm 0 W/m2
06:44 3.1 °C 2.4 °C 1037.2 hPa Calm   3.2 km/h 95% 0.2 mm 0 W/m2
06:49 3.1 °C 2.4 °C 1037.2 hPa Calm   1.6 km/h 95% 0.2 mm 0 W/m2
06:54 2.9 °C 2.2 °C 1037.2 hPa Calm   3.2 km/h 95% 0.2 mm 0 W/m2
06:59 2.8 °C 2.1 °C 1037.2 hPa NW 1.4 km/h 3.2 km/h 95% 0.2 mm 0 W/m2
07:04 2.8 °C 2.1 °C 1037.2 hPa South 1.4 km/h 1.6 km/h 95% 0.0 mm 0 W/m2
07:09 2.8 °C 2.1 °C 1037.2 hPa Calm     95% 0.0 mm 0 W/m2
07:14 2.7 °C 2 °C 1037.2 hPa NNE 1.4 km/h 3.2 km/h 95% 0.0 mm 0 W/m2
07:19 2.8 °C 2.1 °C 1037.2 hPa Calm     95% 0.0 mm 0 W/m2
07:24 2.8 °C 2.1 °C 1037.6 hPa Calm   6.4 km/h 95% 0.0 mm 0 W/m2
07:29 2.8 °C 2.1 °C 1037.6 hPa Calm   3.2 km/h 95% 0.0 mm 5 W/m2
07:34 2.8 °C 2.1 °C 1037.6 hPa Calm   6.4 km/h 95% 0.0 mm 5 W/m2
07:39 2.8 °C 2.1 °C 1037.6 hPa SW 1.4 km/h 3.2 km/h 95% 0.0 mm 9 W/m2
07:44 2.8 °C 2.1 °C 1037.9 hPa Calm   3.2 km/h 95% 0.0 mm 11 W/m2
07:49 2.8 °C 2.1 °C 1037.9 hPa Calm     95% 0.0 mm 14 W/m2
07:54 2.8 °C 2.1 °C 1037.9 hPa North 1.4 km/h 6.4 km/h 95% 0.0 mm 18 W/m2
07:59 2.9 °C 2.2 °C 1037.9 hPa East 1.4 km/h 4.8 km/h 95% 0.0 mm 19 W/m2
08:04 2.9 °C 2.2 °C 1037.9 hPa South 1.4 km/h 3.2 km/h 95% 0.0 mm 21 W/m2
08:09 2.9 °C 2.2 °C 1037.9 hPa WNW 1.4 km/h 4.8 km/h 95% 0.0 mm 25 W/m2
08:14 2.9 °C 2.2 °C 1037.9 hPa Calm     95% 0.0 mm 25 W/m2
08:19 2.9 °C 2.2 °C 1037.9 hPa Calm     95% 0.0 mm 28 W/m2
08:24 2.9 °C 2.2 °C 1037.9 hPa Calm   1.6 km/h 95% 0.0 mm 37 W/m2
08:29 2.9 °C 2.2 °C 1037.9 hPa Calm     95% 0.0 mm 32 W/m2
08:34 2.9 °C 2.2 °C 1037.9 hPa Calm     95% 0.0 mm 33 W/m2
08:39 2.9 °C 2.2 °C 1037.9 hPa Calm     95% 0.0 mm 37 W/m2
08:44 2.9 °C 2.2 °C 1037.9 hPa Calm     95% 0.0 mm 40 W/m2
08:49 3 °C 2.3 °C 1037.9 hPa Calm     95% 0.0 mm 56 W/m2
08:54 3 °C 2.3 °C 1037.9 hPa Calm   3.2 km/h 95% 0.0 mm 69 W/m2
08:59 3.2 °C 2.5 °C 1037.9 hPa Calm   1.6 km/h 95% 0.0 mm 60 W/m2
09:04 3.2 °C 2.5 °C 1037.9 hPa Calm     95% 0.0 mm 72 W/m2
09:09 3.3 °C 2.6 °C 1037.9 hPa Calm   3.2 km/h 95% 0.0 mm 44 W/m2
09:14 3.3 °C 2.6 °C 1037.9 hPa Calm     95% 0.0 mm 69 W/m2
09:19 3.4 °C 2.7 °C 1037.9 hPa Calm     95% 0.0 mm 111 W/m2
09:24 3.5 °C 2.8 °C 1038.3 hPa Calm   1.6 km/h 95% 0.0 mm 90 W/m2
09:29 3.6 °C 2.9 °C 1038.3 hPa Calm   1.6 km/h 95% 0.0 mm 79 W/m2
09:34 3.7 °C 3 °C 1037.9 hPa Calm   4.8 km/h 95% 0.0 mm 83 W/m2
09:40 3.9 °C 3.2 °C 1037.9 hPa Calm   1.6 km/h 95% 0.0 mm 54 W/m2
09:45 3.9 °C 3.2 °C 1037.9 hPa SSE 1.4 km/h 1.6 km/h 95% 0.0 mm 46 W/m2
09:50 3.9 °C 3 °C 1038.3 hPa Calm   1.6 km/h 94% 0.0 mm 44 W/m2
09:55 4 °C 3.1 °C 1038.3 hPa Calm   1.6 km/h 94% 0.0 mm 47 W/m2
10:00 4.1 °C 3.2 °C 1038.3 hPa Calm     94% 0.0 mm 53 W/m2
10:05 4.1 °C 3.2 °C 1038.3 hPa Calm   3.2 km/h 94% 0.0 mm 53 W/m2
10:10 4.2 °C 3.3 °C 1038.3 hPa East 1.4 km/h 1.6 km/h 94% 0.0 mm 53 W/m2
10:15 4.3 °C 3.4 °C 1038.3 hPa Calm   3.2 km/h 94% 0.0 mm 53 W/m2
10:20 4.5 °C 3.6 °C 1038.3 hPa Calm   1.6 km/h 94% 0.0 mm 58 W/m2
10:25 4.6 °C 3.7 °C 1038.3 hPa NE 1.4 km/h 4.8 km/h 94% 0.0 mm 67 W/m2
10:30 4.8 °C 3.8 °C 1038.3 hPa East 4.7 km/h 11.3 km/h 93% 0.0 mm 62 W/m2
10:35 5 °C 4 °C 1038.3 hPa ESE 1.4 km/h 6.4 km/h 93% 0.0 mm 51 W/m2
10:40 5.3 °C 4.3 °C 1038.3 hPa ENE 3.2 km/h 11.3 km/h 93% 0.0 mm 47 W/m2
10:45 5.5 °C 4.3 °C 1038.3 hPa NE 3.2 km/h 4.8 km/h 92% 0.0 mm 47 W/m2
10:50 5.7 °C 4.3 °C 1038.3 hPa East 6.4 km/h 8 km/h 91% 0.0 mm 49 W/m2
10:55 5.8 °C 4.4 °C 1038.3 hPa Calm   4.8 km/h 91% 0.0 mm 60 W/m2
11:00 5.9 °C 4.4 °C 1038.3 hPa East 4.7 km/h 4.8 km/h 90% 0.0 mm 53 W/m2
11:05 6.1 °C 4.6 °C 1038.3 hPa SE 3.2 km/h 6.4 km/h 90% 0.0 mm 49 W/m2
11:10 6.2 °C 4.5 °C 1038.3 hPa ENE 1.4 km/h 6.4 km/h 89% 0.0 mm 46 W/m2
11:15 6.4 °C 4.7 °C 1038.3 hPa NW 3.2 km/h 4.8 km/h 89% 0.0 mm 47 W/m2
11:20 6.6 °C 4.8 °C 1038.3 hPa Calm   6.4 km/h 88% 0.0 mm 46 W/m2
11:25 6.7 °C 4.7 °C 1038.3 hPa Calm   3.2 km/h 87% 0.0 mm 46 W/m2
11:30 6.8 °C 4.6 °C 1037.9 hPa ENE 4.7 km/h 6.4 km/h 86% 0.0 mm 47 W/m2
11:35 6.9 °C 4.7 °C 1037.9 hPa Calm   3.2 km/h 86% 0.0 mm 49 W/m2
11:40 7.1 °C 4.7 °C 1037.9 hPa North 7.9 km/h 8 km/h 85% 0.0 mm 49 W/m2
11:45 7.2 °C 4.8 °C 1037.9 hPa NE 3.2 km/h 6.4 km/h 85% 0.0 mm 60 W/m2
11:50 7.3 °C 4.8 °C 1037.6 hPa North 3.2 km/h 6.4 km/h 84% 0.0 mm 197 W/m2
11:55 7.3 °C 4.8 °C 1037.6 hPa NW 3.2 km/h 3.2 km/h 84% 0.0 mm 135 W/m2
12:00 7.4 °C 4.9 °C 1037.6 hPa SE 1.4 km/h 3.2 km/h 84% 0.0 mm 116 W/m2
12:05 7.6 °C 4.9 °C 1037.6 hPa Calm   4.8 km/h 83% 0.0 mm 62 W/m2
12:10 7.6 °C 4.9 °C 1037.2 hPa ENE 1.4 km/h 6.4 km/h 83% 0.0 mm 53 W/m2
12:15 7.8 °C 5.1 °C 1037.2 hPa NNW 1.4 km/h 4.8 km/h 83% 0.0 mm 47 W/m2
12:20 7.8 °C 4.9 °C 1037.2 hPa ESE 6.4 km/h 9.7 km/h 82% 0.0 mm 44 W/m2
12:25 7.9 °C 5 °C 1037.2 hPa East 4.7 km/h 4.8 km/h 82% 0.0 mm 46 W/m2
12:30 8 °C 4.9 °C 1036.9 hPa Calm   1.6 km/h 81% 0.0 mm 47 W/m2
12:35 8.1 °C 5 °C 1036.9 hPa Calm   3.2 km/h 81% 0.0 mm 47 W/m2
12:40 8.2 °C 5.1 °C 1036.9 hPa ESE 4.7 km/h 6.4 km/h 81% 0.0 mm 46 W/m2
12:45 8.3 °C 5.1 °C 1036.9 hPa NE 6.4 km/h 8 km/h 80% 0.0 mm 47 W/m2
12:50 8.4 °C 5.2 °C 1036.9 hPa Calm   4.8 km/h 80% 0.0 mm 60 W/m2
12:55 8.4 °C 5 °C 1036.9 hPa Calm   4.8 km/h 79% 0.0 mm 47 W/m2
13:00 8.6 °C 5.2 °C 1036.6 hPa NW 4.7 km/h 9.7 km/h 79% 0.0 mm 67 W/m2
13:06 8.7 °C 5.3 °C 1036.6 hPa SSW 1.4 km/h 4.8 km/h 79% 0.0 mm 95 W/m2
13:11 8.7 °C 5.3 °C 1036.6 hPa NE 6.4 km/h 8 km/h 79% 0.0 mm 56 W/m2
13:16 8.8 °C 5.2 °C 1036.6 hPa North 1.4 km/h 3.2 km/h 78% 0.0 mm 67 W/m2
13:21 8.9 °C 5.3 °C 1036.6 hPa Calm   8 km/h 78% 0.0 mm 65 W/m2
13:26 8.9 °C 5.5 °C 1036.6 hPa ENE 4.7 km/h 4.8 km/h 79% 0.0 mm 58 W/m2
13:31 9.1 °C 5.7 °C 1036.6 hPa East 3.2 km/h 6.4 km/h 79% 0.0 mm 53 W/m2
13:36 9.2 °C 5.6 °C 1036.6 hPa ENE 7.9 km/h 9.7 km/h 78% 0.0 mm 67 W/m2
13:41 9.2 °C 5.6 °C 1036.6 hPa Calm   3.2 km/h 78% 0.0 mm 70 W/m2
13:46 9.3 °C 5.7 °C 1036.2 hPa NW 1.4 km/h 8 km/h 78% 0.0 mm 53 W/m2
13:51 9.4 °C 5.8 °C 1036.2 hPa NE 4.7 km/h 9.7 km/h 78% 0.0 mm 62 W/m2
13:56 9.4 °C 5.6 °C 1036.2 hPa WNW 1.4 km/h 6.4 km/h 77% 0.0 mm 47 W/m2
14:01 9.6 °C 5.8 °C 1036.2 hPa East 1.4 km/h 9.7 km/h 77% 0.0 mm 47 W/m2
14:06 9.6 °C 5.6 °C 1036.2 hPa WSW 3.2 km/h 8 km/h 76% 0.0 mm 47 W/m2
14:11 9.6 °C 5.8 °C 1036.2 hPa NNW 3.2 km/h 11.3 km/h 77% 0.0 mm 46 W/m2
14:16 9.7 °C 5.7 °C 1036.2 hPa Calm   8 km/h 76% 0.0 mm 42 W/m2
14:21 9.7 °C 5.7 °C 1036.2 hPa Calm   4.8 km/h 76% 0.0 mm 42 W/m2
14:26 9.7 °C 5.7 °C 1036.2 hPa NNE 4.7 km/h 14.5 km/h 76% 0.0 mm 40 W/m2
14:31 9.8 °C 5.6 °C 1035.9 hPa NNW 6.4 km/h 6.4 km/h 75% 0.0 mm 40 W/m2
14:36 9.8 °C 5.6 °C 1035.9 hPa Calm   6.4 km/h 75% 0.0 mm 39 W/m2
14:41 9.9 °C 5.7 °C 1035.9 hPa NE 3.2 km/h 6.4 km/h 75% 0.0 mm 39 W/m2
14:46 9.9 °C 5.3 °C 1035.9 hPa NNE 6.4 km/h 9.7 km/h 73% 0.0 mm 39 W/m2
14:51 9.9 °C 5.5 °C 1035.9 hPa ESE 1.4 km/h 3.2 km/h 74% 0.0 mm 39 W/m2
14:56 9.9 °C 5.3 °C 1035.9 hPa NE 3.2 km/h 6.4 km/h 73% 0.0 mm 37 W/m2
15:01 9.8 °C 5.4 °C 1035.6 hPa NW 3.2 km/h 4.8 km/h 74% 0.0 mm 37 W/m2
15:06 9.8 °C 5.4 °C 1035.6 hPa WNW 1.4 km/h 4.8 km/h 74% 0.0 mm 35 W/m2
15:11 9.9 °C 5.5 °C 1035.6 hPa ENE 7.9 km/h 9.7 km/h 74% 0.0 mm 35 W/m2
15:16 9.9 °C 5.3 °C 1035.6 hPa Calm   4.8 km/h 73% 0.0 mm 33 W/m2
15:21 9.9 °C 5.3 °C 1035.6 hPa NNW 4.7 km/h 4.8 km/h 73% 0.0 mm 33 W/m2
15:26 9.9 °C 5.3 °C 1035.6 hPa ENE 1.4 km/h 3.2 km/h 73% 0.0 mm 32 W/m2
15:31 9.9 °C 5.3 °C 1035.6 hPa Calm   1.6 km/h 73% 0.0 mm 32 W/m2
15:36 9.9 °C 5.1 °C 1035.6 hPa North 4.7 km/h 4.8 km/h 72% 0.0 mm 30 W/m2
15:41 9.8 °C 5 °C 1035.6 hPa SSE 1.4 km/h 4.8 km/h 72% 0.0 mm 30 W/m2
15:46 9.8 °C 5 °C 1035.6 hPa East 3.2 km/h 3.2 km/h 72% 0.0 mm 28 W/m2
15:51 9.7 °C 5.1 °C 1035.6 hPa East 1.4 km/h 3.2 km/h 73% 0.0 mm 28 W/m2
15:56 9.7 °C 5.1 °C 1035.6 hPa WNW 3.2 km/h 4.8 km/h 73% 0.0 mm 26 W/m2
16:01 9.6 °C 5.2 °C 1035.6 hPa North 1.4 km/h 4.8 km/h 74% 0.0 mm 26 W/m2
16:06 9.4 °C 5 °C 1035.6 hPa Calm   6.4 km/h 74% 0.0 mm 26 W/m2
16:11 9.4 °C 5.2 °C 1035.6 hPa Calm   1.6 km/h 75% 0.0 mm 25 W/m2
16:16 9.3 °C 5.1 °C 1035.6 hPa NNW 1.4 km/h 3.2 km/h 75% 0.0 mm 23 W/m2
16:21 9.3 °C 5.1 °C 1035.6 hPa NW 1.4 km/h 4.8 km/h 75% 0.0 mm 23 W/m2
16:26 9.3 °C 5.1 °C 1035.6 hPa WNW 1.4 km/h 3.2 km/h 75% 0.0 mm 21 W/m2
16:31 9.2 °C 5.2 °C 1035.6 hPa Calm   4.8 km/h 76% 0.0 mm 19 W/m2
16:36 9.1 °C 5.1 °C 1035.6 hPa Calm   1.6 km/h 76% 0.0 mm 18 W/m2
16:41 9 °C 5 °C 1035.6 hPa NE 1.4 km/h 4.8 km/h 76% 0.0 mm 16 W/m2
16:46 8.9 °C 5.1 °C 1035.6 hPa Calm   3.2 km/h 77% 0.0 mm 14 W/m2
16:51 8.8 °C 5.2 °C 1035.6 hPa South 1.4 km/h 6.4 km/h 78% 0.0 mm 12 W/m2
16:56 8.6 °C 5 °C 1035.6 hPa NW 1.4 km/h 6.4 km/h 78% 0.0 mm 11 W/m2
17:01 8.5 °C 4.9 °C 1035.6 hPa Calm   3.2 km/h 78% 0.0 mm 7 W/m2
17:06 8.3 °C 4.9 °C 1035.6 hPa Calm   6.4 km/h 79% 0.0 mm 5 W/m2
17:11 8.2 °C 4.8 °C 1035.6 hPa Calm   1.6 km/h 79% 0.0 mm 0 W/m2
17:16 8.1 °C 4.9 °C 1035.6 hPa Calm     80% 0.0 mm 0 W/m2
17:21 7.9 °C 4.7 °C 1035.6 hPa Calm     80% 0.0 mm 0 W/m2
17:26 7.7 °C 4.6 °C 1035.6 hPa Calm   1.6 km/h 81% 0.0 mm 0 W/m2
17:31 7.6 °C 4.5 °C 1035.6 hPa NW 1.4 km/h 1.6 km/h 81% 0.0 mm 0 W/m2
17:36 7.4 °C 4.5 °C 1035.6 hPa Calm   1.6 km/h 82% 0.0 mm 0 W/m2
17:41 7.3 °C 4.6 °C 1035.6 hPa Calm   1.6 km/h 83% 0.0 mm 0 W/m2
17:46 7.2 °C 4.5 °C 1035.6 hPa SSE 1.4 km/h 1.6 km/h 83% 0.0 mm 0 W/m2
17:51 7.1 °C 4.4 °C 1035.6 hPa Calm   6.4 km/h 83% 0.0 mm 0 W/m2
17:56 7 °C 4.5 °C 1035.2 hPa East 1.4 km/h 3.2 km/h 84% 0.0 mm 0 W/m2
18:01 7 °C 4.5 °C 1035.6 hPa East 3.2 km/h 3.2 km/h 84% 0.0 mm 0 W/m2
18:06 6.9 °C 4.4 °C 1035.2 hPa Calm   1.6 km/h 84% 0.0 mm 0 W/m2
18:11 6.8 °C 4.3 °C 1035.6 hPa Calm   3.2 km/h 84% 0.0 mm 0 W/m2
18:16 6.7 °C 4.4 °C 1035.6 hPa Calm   1.6 km/h 85% 0.0 mm 0 W/m2
18:21 6.6 °C 4.3 °C 1035.6 hPa Calm     85% 0.0 mm 0 W/m2
18:26 6.5 °C 4.3 °C 1035.6 hPa Calm   1.6 km/h 86% 0.0 mm 0 W/m2
18:31 6.3 °C 4.1 °C 1035.6 hPa Calm     86% 0.0 mm 0 W/m2
18:36 6.2 °C 4 °C 1035.6 hPa Calm     86% 0.0 mm 0 W/m2
18:41 6.1 °C 4.1 °C 1035.6 hPa Calm   3.2 km/h 87% 0.0 mm 0 W/m2
18:46 5.9 °C 3.9 °C 1035.6 hPa Calm     87% 0.0 mm 0 W/m2
18:51 5.8 °C 3.8 °C 1035.6 hPa Calm   3.2 km/h 87% 0.0 mm 0 W/m2
18:56 5.7 °C 3.9 °C 1035.6 hPa SSE 1.4 km/h 3.2 km/h 88% 0.0 mm 0 W/m2
19:01 5.6 °C 3.8 °C 1035.6 hPa Calm   1.6 km/h 88% 0.0 mm 0 W/m2
19:06 5.4 °C 3.7 °C 1035.6 hPa Calm     89% 0.0 mm 0 W/m2
19:11 5.3 °C 3.6 °C 1035.6 hPa Calm     89% 0.0 mm 0 W/m2
19:16 5.2 °C 3.5 °C 1035.6 hPa Calm     89% 0.0 mm 0 W/m2
19:21 5.1 °C 3.4 °C 1035.6 hPa Calm   3.2 km/h 89% 0.0 mm 0 W/m2
19:26 4.9 °C 3.2 °C 1035.6 hPa SSE 1.4 km/h 1.6 km/h 89% 0.0 mm 0 W/m2
19:31 4.8 °C 3.3 °C 1035.6 hPa SSE 1.4 km/h 3.2 km/h 90% 0.0 mm 0 W/m2
19:36 4.7 °C 3.2 °C 1035.6 hPa Calm   3.2 km/h 90% 0.0 mm 0 W/m2
19:41 4.6 °C 3.1 °C 1035.6 hPa Calm     90% 0.0 mm 0 W/m2
19:46 4.5 °C 3 °C 1035.6 hPa SSE 1.4 km/h 1.6 km/h 90% 0.0 mm 0 W/m2
19:51 4.4 °C 2.9 °C 1035.6 hPa Calm   1.6 km/h 90% 0.0 mm 0 W/m2
19:56 4.3 °C 3 °C 1035.6 hPa Calm   1.6 km/h 91% 0.0 mm 0 W/m2
20:01 4.3 °C 3 °C 1035.6 hPa Calm     91% 0.0 mm 0 W/m2
20:06 4.2 °C 2.9 °C 1035.6 hPa Calm   1.6 km/h 91% 0.0 mm 0 W/m2
20:11 4.1 °C 2.8 °C 1035.6 hPa SE 3.2 km/h 3.2 km/h 91% 0.0 mm 0 W/m2
20:16 4.1 °C 2.9 °C 1035.6 hPa Calm   3.2 km/h 92% 0.0 mm 0 W/m2
20:21 3.9 °C 2.7 °C 1035.6 hPa Calm   1.6 km/h 92% 0.0 mm 0 W/m2
20:26 3.9 °C 2.6 °C 1035.6 hPa Calm   3.2 km/h 91% 0.0 mm 0 W/m2
20:31 3.8 °C 2.6 °C 1035.6 hPa Calm   1.6 km/h 92% 0.0 mm 0 W/m2
20:36 3.8 °C 2.6 °C 1035.6 hPa SE 3.2 km/h 3.2 km/h 92% 0.0 mm 0 W/m2
20:41 3.8 °C 2.6 °C 1035.9 hPa Calm   3.2 km/h 92% 0.0 mm 0 W/m2
20:46 3.7 °C 2.5 °C 1035.9 hPa South 1.4 km/h 3.2 km/h 92% 0.0 mm 0 W/m2
20:51 3.7 °C 2.5 °C 1035.9 hPa Calm     92% 0.0 mm 0 W/m2
20:56 3.7 °C 2.7 °C 1035.9 hPa South 1.4 km/h 1.6 km/h 93% 0.0 mm 0 W/m2
21:01 3.7 °C 2.7 °C 1035.9 hPa Calm     93% 0.0 mm 0 W/m2
21:06 3.8 °C 2.8 °C 1035.9 hPa Calm   1.6 km/h 93% 0.0 mm 0 W/m2
21:11 3.8 °C 2.8 °C 1035.9 hPa Calm     93% 0.0 mm 0 W/m2
21:16 3.8 °C 2.8 °C 1035.6 hPa Calm   1.6 km/h 93% 0.0 mm 0 W/m2
21:21 3.8 °C 2.6 °C 1035.6 hPa Calm   1.6 km/h 92% 0.0 mm 0 W/m2
21:26 3.8 °C 2.6 °C 1035.6 hPa NW 1.4 km/h 1.6 km/h 92% 0.0 mm 0 W/m2
21:31 3.7 °C 2.5 °C 1035.6 hPa Calm     92% 0.0 mm 0 W/m2
21:36 3.6 °C 2.4 °C 1035.6 hPa WSW 1.4 km/h 3.2 km/h 92% 0.0 mm 0 W/m2
21:41 3.4 °C 2.2 °C 1035.6 hPa Calm   3.2 km/h 92% 0.0 mm 0 W/m2
21:46 3.3 °C 2.1 °C 1035.6 hPa Calm   1.6 km/h 92% 0.0 mm 0 W/m2
21:51 3.2 °C 2 °C 1035.6 hPa Calm   3.2 km/h 92% 0.0 mm 0 W/m2
21:56 3.1 °C 1.9 °C 1035.6 hPa Calm   1.6 km/h 92% 0.0 mm 0 W/m2
22:01 3.1 °C 1.9 °C 1035.6 hPa Calm   1.6 km/h 92% 0.0 mm 0 W/m2
22:06 3 °C 2 °C 1035.6 hPa Calm   1.6 km/h 93% 0.0 mm 0 W/m2
22:11 2.9 °C 1.9 °C 1035.6 hPa WSW 1.4 km/h 3.2 km/h 93% 0.0 mm 0 W/m2
22:17 2.9 °C 1.9 °C 1035.6 hPa Calm     93% 0.0 mm 0 W/m2
22:22 2.9 °C 1.9 °C 1035.6 hPa Calm   3.2 km/h 93% 0.0 mm 0 W/m2
22:27 2.8 °C 1.8 °C 1035.2 hPa Calm   1.6 km/h 93% 0.0 mm 0 W/m2
22:32 2.8 °C 1.9 °C 1035.2 hPa Calm     94% 0.0 mm 0 W/m2
22:37 2.9 °C 2 °C 1035.2 hPa WSW 1.4 km/h 1.6 km/h 94% 0.0 mm 0 W/m2
22:42 2.8 °C 1.9 °C 1035.2 hPa Calm   3.2 km/h 94% 0.0 mm 0 W/m2
22:47 2.8 °C 1.9 °C 1035.2 hPa Calm   3.2 km/h 94% 0.0 mm 0 W/m2
22:52 2.8 °C 1.9 °C 1035.2 hPa Calm   1.6 km/h 94% 0.0 mm 0 W/m2
22:57 2.8 °C 1.9 °C 1035.2 hPa Calm     94% 0.0 mm 0 W/m2
23:02 2.8 °C 1.9 °C 1034.9 hPa Calm     94% 0.0 mm 0 W/m2
23:07 2.9 °C 2 °C 1034.9 hPa Calm   1.6 km/h 94% 0.0 mm 0 W/m2
23:12 2.9 °C 2 °C 1034.9 hPa SW 3.2 km/h 3.2 km/h 94% 0.0 mm 0 W/m2
23:17 2.8 °C 1.9 °C 1034.9 hPa Calm     94% 0.0 mm 0 W/m2
23:22 2.8 °C 1.9 °C 1034.9 hPa Calm     94% 0.0 mm 0 W/m2
23:27 2.8 °C 1.9 °C 1034.9 hPa SW 3.2 km/h 3.2 km/h 94% 0.0 mm 0 W/m2
23:32 2.8 °C 1.9 °C 1034.9 hPa SW 1.4 km/h 3.2 km/h 94% 0.0 mm 0 W/m2
23:37 2.8 °C 1.9 °C 1034.9 hPa Calm     94% 0.0 mm 0 W/m2
23:42 2.7 °C 1.8 °C 1034.9 hPa SW 1.4 km/h 3.2 km/h 94% 0.0 mm 0 W/m2
23:47 2.7 °C 1.8 °C 1034.9 hPa Calm   1.6 km/h 94% 0.0 mm 0 W/m2
23:52 2.7 °C 1.8 °C 1034.5 hPa Calm   1.6 km/h 94% 0.0 mm 0 W/m2
23:57 2.7 °C 1.8 °C 1034.9 hPa SW 1.4 km/h 1.6 km/h 94% 0.0 mm 0 W/m2
Juneau County Weather
Compliments of Weather Underground - 4 mb